Time;durP1;ratioP1;P1;durP2;ratioP2;P2;SDS_P1;SDS_P2;PMS_P1;PMS_P2;Temp;Humidity;BMP_temperature;BMP_pressure;BME280_temperature;BME280_humidity;BME280_pressure;Samples;Min_cycle;Max_cycle;Signal;HPM_P1;HPM_P2
2023/01/26 02:06:32;;;;;;;3.45;2.65;;;;;;;1.38;100.00;100559.75;6119994;23;20488;-89
2023/01/26 02:08:58;;;;;;;2.53;1.75;;;;;;;1.47;100.00;100568.50;6048297;23;20024;-91
2023/01/26 02:11:29;;;;;;;1.60;1.55;;;;;;;1.49;100.00;100560.75;6049189;23;20022;-91
2023/01/26 02:13:55;;;;;;;3.20;0.80;;;;;;;1.51;100.00;100558.44;6072402;23;20025;-89
2023/01/26 02:16:21;;;;;;;2.03;1.92;;;;;;;1.44;100.00;100552.84;6048810;23;20017;-90
2023/01/26 02:18:47;;;;;;;3.13;2.88;;;;;;;1.44;100.00;100547.38;6072346;23;20044;-89
2023/01/26 02:21:16;;;;;;;1.75;1.65;;;;;;;1.45;100.00;100548.94;6049084;23;20026;-89
2023/01/26 02:24:36;;;;;;;1.33;1.23;;;;;;;1.49;100.00;100543.53;6071766;23;20319;-89
2023/01/26 02:27:01;;;;;;;2.90;2.20;;;;;;;1.35;100.00;100533.13;6037506;23;20031;-92
2023/01/26 02:29:27;;;;;;;0.77;0.77;;;;;;;1.39;100.00;100531.25;5990652;23;20395;-89
2023/01/26 02:31:53;;;;;;;1.45;1.35;;;;;;;1.37;100.00;100530.84;6065616;23;20021;-89
2023/01/26 02:34:20;;;;;;;2.22;2.10;;;;;;;1.33;100.00;100530.00;6072101;23;20100;-91
2023/01/26 02:36:56;;;;;;;8.48;3.67;;;;;;;1.40;100.00;100530.13;6049475;23;20113;-89
2023/01/26 02:39:44;;;;;;;3.08;2.83;;;;;;;1.43;100.00;100523.91;6072396;23;20018;-89
2023/01/26 02:44:54;;;;;;;3.40;3.20;;;;;;;1.46;100.00;100506.78;6096530;23;20041;-89
2023/01/26 02:47:20;;;;;;;1.20;1.20;;;;;;;1.32;100.00;100490.13;6072891;23;20354;-89
2023/01/26 02:49:49;;;;;;;4.97;4.55;;;;;;;1.40;100.00;100494.56;6048507;23;20100;-89
2023/01/26 02:52:21;;;;;;;7.05;3.00;;;;;;;1.33;100.00;100491.72;6073278;23;20096;-89
2023/01/26 02:57:38;;;;;;;2.10;1.95;;;;;;;1.30;100.00;100492.44;6100446;23;20462;-91
2023/01/26 03:00:09;;;;;;;3.08;2.78;;;;;;;1.22;100.00;100474.31;6072371;23;20097;-92
2023/01/26 03:02:35;;;;;;;4.07;3.25;;;;;;;1.20;100.00;100473.91;6071961;23;20104;-91
2023/01/26 03:05:03;;;;;;;3.75;2.60;;;;;;;1.13;100.00;100444.53;6043483;23;20062;-91
2023/01/26 03:07:29;;;;;;;2.30;2.10;;;;;;;1.11;100.00;100467.88;6043634;23;20447;-90
2023/01/26 03:09:57;;;;;;;2.30;2.13;;;;;;;1.15;100.00;100464.06;6090948;23;20023;-91
2023/01/26 03:12:23;;;;;;;3.97;3.60;;;;;;;1.26;100.00;100470.50;6092905;23;20018;-91
2023/01/26 03:15:33;;;;;;;2.25;2.10;;;;;;;1.18;100.00;100460.59;6043655;23;20313;-91
2023/01/26 03:17:35;;;;;;;2.53;2.22;;;;;;;1.18;100.00;100457.88;6047019;23;20022;-91
2023/01/26 03:27:25;;;;;;;1.05;0.95;;;;;;;1.26;100.00;100439.66;6064476;23;20026;-91
2023/01/26 03:28:25;;;;;;;3.72;3.42;;;;;;;1.29;100.00;100438.94;6071207;23;20358;-91
2023/01/26 03:30:53;;;;;;;1.88;1.77;;;;;;;1.35;100.00;100445.69;6043734;23;20074;-92
2023/01/26 03:33:19;;;;;;;4.30;1.90;;;;;;;1.33;100.00;100448.00;6066703;23;20105;-91
2023/01/26 03:35:45;;;;;;;5.20;4.68;;;;;;;1.37;100.00;100443.38;6020184;23;20534;-93
2023/01/26 03:38:11;;;;;;;4.15;3.55;;;;;;;1.30;100.00;100448.69;6019382;23;20097;-91
2023/01/26 03:57:17;;;;;;;3.53;3.05;;;;;;;1.30;100.00;100427.63;6071178;23;20105;-91
2023/01/26 03:59:43;;;;;;;2.60;2.38;;;;;;;1.22;100.00;100425.13;6066987;23;20162;-92
2023/01/26 04:10:31;;;;;;;3.15;2.95;;;;;;;1.30;100.00;100410.44;6047002;23;20081;-91
2023/01/26 04:21:25;;;;;;;2.35;1.90;;;;;;;1.25;100.00;100403.38;6046655;23;20018;-93
2023/01/26 04:23:57;;;;;;;4.55;2.72;;;;;;;1.21;100.00;100394.31;6044778;23;20010;-92
2023/01/26 04:26:25;;;;;;;2.03;1.95;;;;;;;1.18;100.00;100391.50;6043505;23;20347;-91
2023/01/26 04:28:52;;;;;;;3.28;2.97;;;;;;;1.19;100.00;100398.56;6043618;23;20500;-91
2023/01/26 04:31:18;;;;;;;5.05;3.47;;;;;;;1.21;100.00;100401.72;6019923;23;20030;-91
2023/01/26 04:33:46;;;;;;;0.85;0.85;;;;;;;1.15;100.00;100384.03;6043288;23;20038;-91
2023/01/26 04:36:12;;;;;;;4.47;2.42;;;;;;;1.26;100.00;100383.06;6042989;23;20090;-91
2023/01/26 04:38:42;;;;;;;2.63;2.42;;;;;;;1.33;100.00;100387.88;6023013;23;20022;-91
2023/01/26 04:41:08;;;;;;;3.95;3.35;;;;;;;1.34;100.00;100398.41;6045127;23;20026;-92
2023/01/26 04:43:41;;;;;;;2.90;2.70;;;;;;;1.25;100.00;100384.25;6068743;23;20581;-91
2023/01/26 04:46:07;;;;;;;1.00;0.90;;;;;;;1.27;100.00;100394.78;6044539;23;20258;-91
2023/01/26 04:48:34;;;;;;;3.67;2.35;;;;;;;1.26;100.00;100377.59;6020985;23;20014;-93
2023/01/26 04:51:02;;;;;;;3.03;2.80;;;;;;;1.30;100.00;100391.31;6044036;23;20350;-90
2023/01/26 04:53:28;;;;;;;1.92;1.02;;;;;;;1.22;100.00;100376.75;6044782;23;20014;-91
2023/01/26 04:55:54;;;;;;;2.88;2.67;;;;;;;1.25;100.00;100381.50;6044905;23;20069;-90
2023/01/26 04:58:20;;;;;;;4.18;3.88;;;;;;;1.29;100.00;100387.03;6020653;23;20015;-90
2023/01/26 05:00:53;;;;;;;13.77;4.03;;;;;;;1.26;100.00;100385.78;6044568;23;20014;-90
2023/01/26 05:03:19;;;;;;;7.50;2.53;;;;;;;1.25;100.00;100386.97;6068532;23;20026;-89
2023/01/26 05:05:47;;;;;;;1.85;1.75;;;;;;;1.21;100.00;100385.34;6039509;23;20041;-91
2023/01/26 05:08:13;;;;;;;2.60;2.30;;;;;;;1.11;100.00;100375.78;6048849;23;20036;-90
2023/01/26 05:10:38;;;;;;;5.68;2.53;;;;;;;1.15;100.00;100381.31;6049086;23;20085;-89
2023/01/26 05:13:34;;;;;;;2.70;2.50;;;;;;;1.06;100.00;100380.75;6084815;23;20033;-90
2023/01/26 05:16:13;;;;;;;6.30;2.72;;;;;;;1.15;100.00;100387.56;6075631;23;20021;-89
2023/01/26 05:19:15;;;;;;;1.48;1.38;;;;;;;1.18;100.00;100388.78;5999028;23;20016;-89
2023/01/26 05:21:49;;;;;;;4.88;4.45;;;;;;;1.17;100.00;100389.94;6048756;23;20025;-90
2023/01/26 05:24:16;;;;;;;3.55;2.50;;;;;;;1.18;100.00;100375.09;6048951;23;20046;-88
2023/01/26 05:27:19;;;;;;;1.98;1.88;;;;;;;1.00;100.00;100376.78;6081151;23;20018;-90
2023/01/26 05:29:49;;;;;;;12.43;4.65;;;;;;;0.84;100.00;100365.97;6053474;23;20018;-90
2023/01/26 05:32:15;;;;;;;4.38;4.03;;;;;;;0.90;100.00;100375.41;6073109;23;20010;-89
2023/01/26 05:34:41;;;;;;;2.67;2.47;;;;;;;0.91;100.00;100377.81;6048473;23;20105;-90
2023/01/26 05:37:07;;;;;;;1.88;1.77;;;;;;;0.97;100.00;100382.97;6049273;23;20332;-90
2023/01/26 05:39:34;;;;;;;2.90;2.70;;;;;;;0.89;100.00;100369.16;6071918;23;20056;-90
2023/01/26 05:42:03;;;;;;;0.57;0.57;;;;;;;0.92;100.00;100375.84;6049470;23;20089;-91
2023/01/26 05:44:51;;;;;;;7.00;4.10;;;;;;;0.87;100.00;100374.22;6054694;23;20029;-90
2023/01/26 05:47:16;;;;;;;3.92;3.42;;;;;;;1.01;100.00;100387.34;6069648;23;20018;-91
2023/01/26 05:49:46;;;;;;;4.35;2.70;;;;;;;1.01;100.00;100381.88;6045419;23;20402;-90
2023/01/26 05:52:19;;;;;;;3.65;2.47;;;;;;;1.02;100.00;100383.44;6046785;23;20442;-90
2023/01/26 05:54:46;;;;;;;2.30;1.45;;;;;;;0.99;100.00;100372.44;6068745;23;20021;-91
2023/01/26 05:57:12;;;;;;;3.25;2.60;;;;;;;0.96;100.00;100378.66;6068873;23;20018;-91
2023/01/26 05:59:43;;;;;;;6.93;3.72;;;;;;;0.96;100.00;100379.44;6047442;23;20349;-90
2023/01/26 06:02:10;;;;;;;3.83;3.47;;;;;;;0.97;100.00;100385.69;6068201;23;20018;-91
2023/01/26 06:04:36;;;;;;;1.50;1.40;;;;;;;0.93;100.00;100380.94;6040081;23;20023;-91
2023/01/26 06:07:03;;;;;;;4.78;2.08;;;;;;;0.90;100.00;100381.69;6039768;23;20027;-91
2023/01/26 06:09:35;;;;;;;3.28;3.05;;;;;;;0.87;100.00;100376.94;6044177;23;20336;-91
2023/01/26 06:12:19;;;;;;;4.18;1.23;;;;;;;0.92;100.00;100390.31;6043266;23;20026;-90
2023/01/26 06:14:57;;;;;;;2.97;2.75;;;;;;;0.91;100.00;100377.81;6069406;23;20358;-89
2023/01/26 06:17:30;;;;;;;3.13;2.92;;;;;;;0.94;100.00;100377.06;6042328;23;20506;-90
2023/01/26 06:19:58;;;;;;;10.20;4.20;;;;;;;0.86;100.00;100378.09;6018113;23;20018;-90
2023/01/26 06:22:23;;;;;;;2.72;2.53;;;;;;;0.87;100.00;100374.22;6067548;23;20010;-91
2023/01/26 06:24:50;;;;;;;5.75;4.38;;;;;;;0.89;100.00;100380.09;6042605;23;20019;-90
2023/01/26 06:27:17;;;;;;;3.97;3.78;;;;;;;0.90;100.00;100380.88;6067499;23;20015;-90
2023/01/26 06:29:44;;;;;;;4.45;4.05;;;;;;;0.81;100.00;100356.53;6066424;23;20406;-90
2023/01/26 06:32:11;;;;;;;6.82;5.55;;;;;;;0.88;100.00;100373.06;6041682;23;20018;-89
2023/01/26 06:34:37;;;;;;;1.85;1.75;;;;;;;0.85;100.00;100376.50;6042139;23;20133;-91
2023/01/26 06:37:02;;;;;;;5.90;5.43;;;;;;;0.90;100.00;100370.75;6042672;23;20093;-91
2023/01/26 06:39:32;;;;;;;2.60;2.38;;;;;;;0.86;100.00;100364.44;6066003;23;20473;-90
2023/01/26 06:41:59;;;;;;;1.48;1.42;;;;;;;0.80;100.00;100344.06;6019408;23;20153;-89
2023/01/26 06:44:25;;;;;;;2.75;2.55;;;;;;;0.87;100.00;100360.56;6043283;23;20058;-91
2023/01/26 06:46:50;;;;;;;6.50;4.32;;;;;;;1.03;100.00;100376.03;6067563;23;20019;-90
2023/01/26 06:49:16;;;;;;;4.28;3.67;;;;;;;1.06;100.00;100372.56;6066392;23;20510;-91
2023/01/26 06:51:54;;;;;;;4.90;3.42;;;;;;;1.09;100.00;100377.31;6043403;23;20023;-91
2023/01/26 06:54:23;;;;;;;2.13;1.98;;;;;;;1.02;100.00;100371.72;6043363;23;20101;-90
2023/01/26 06:57:20;;;;;;;1.15;1.15;;;;;;;0.93;100.00;100364.56;6039359;23;20018;-90
2023/01/26 06:59:59;;;;;;;1.95;1.85;;;;;;;0.94;100.00;100377.06;6069662;23;20099;-91
2023/01/26 07:02:43;;;;;;;1.30;1.27;;;;;;;0.90;100.00;100365.28;6070745;23;20359;-91
2023/01/26 07:05:09;;;;;;;1.30;1.25;;;;;;;0.89;100.00;100363.69;6060480;23;20022;-92
2023/01/26 07:07:34;;;;;;;2.15;1.95;;;;;;;0.83;100.00;100354.25;6019726;23;20026;-92
2023/01/26 07:10:00;;;;;;;3.90;2.35;;;;;;;0.85;100.00;100362.84;6067161;23;20463;-91
2023/01/26 07:12:25;;;;;;;2.25;2.05;;;;;;;0.83;100.00;100358.91;6067313;23;20094;-92
2023/01/26 07:14:51;;;;;;;4.80;2.50;;;;;;;0.76;100.00;100354.13;6067014;23;20553;-92
2023/01/26 07:17:16;;;;;;;7.25;4.05;;;;;;;0.82;100.00;100355.41;6092452;23;20479;-93
2023/01/26 07:19:42;;;;;;;6.68;4.18;;;;;;;0.79;100.00;100353.41;6066614;23;20038;-92
2023/01/26 07:22:08;;;;;;;7.00;5.65;;;;;;;0.78;100.00;100348.28;6092388;23;20074;-91
2023/01/26 07:24:33;;;;;;;5.38;4.28;;;;;;;0.78;100.00;100357.28;6066439;23;20013;-91
2023/01/26 07:26:59;;;;;;;7.70;7.00;;;;;;;0.85;100.00;100356.63;6066915;23;20352;-92
2023/01/26 07:29:25;;;;;;;4.05;3.75;;;;;;;0.89;100.00;100354.75;6092657;23;20146;-92
2023/01/26 07:31:50;;;;;;;4.97;3.72;;;;;;;0.89;100.00;100346.56;6092586;23;20049;-93
2023/01/26 07:34:16;;;;;;;2.40;1.88;;;;;;;0.92;100.00;100352.06;6066247;23;20435;-91
2023/01/26 07:36:42;;;;;;;11.30;4.57;;;;;;;0.98;100.00;100363.47;6092962;23;20035;-92
2023/01/26 07:39:07;;;;;;;9.68;6.35;;;;;;;0.96;100.00;100354.06;6042509;23;20013;-92
2023/01/26 07:41:34;;;;;;;4.50;2.45;;;;;;;0.99;100.00;100356.06;6092483;23;20014;-91
2023/01/26 07:44:00;;;;;;;2.25;1.98;;;;;;;0.91;100.00;100350.50;6042967;23;20019;-92
2023/01/26 07:46:26;;;;;;;5.72;5.22;;;;;;;0.98;100.00;100351.75;6042918;23;20006;-92
2023/01/26 07:48:51;;;;;;;2.92;2.58;;;;;;;1.03;100.00;100348.72;6042404;23;20037;-91
2023/01/26 07:51:17;;;;;;;3.15;2.35;;;;;;;1.06;100.00;100350.72;6066631;23;20470;-93
2023/01/26 07:53:44;;;;;;;5.40;3.53;;;;;;;1.11;100.00;100355.88;6066364;23;20019;-92
2023/01/26 07:56:14;;;;;;;2.05;1.65;;;;;;;1.18;100.00;100364.97;6043143;23;20034;-92
2023/01/26 07:58:40;;;;;;;3.90;3.63;;;;;;;1.21;100.00;100361.53;6090837;23;20021;-91
2023/01/26 08:01:11;;;;;;;2.47;2.28;;;;;;;1.22;100.00;100359.56;6043016;23;20006;-92
2023/01/26 08:03:37;;;;;;;3.72;3.40;;;;;;;1.26;100.00;100363.94;6042475;23;20396;-92
2023/01/26 08:06:03;;;;;;;3.47;3.13;;;;;;;1.24;100.00;100351.81;6066807;23;20098;-92
2023/01/26 08:08:28;;;;;;;3.88;3.00;;;;;;;1.27;100.00;100351.84;6042508;23;20019;-93
2023/01/26 08:10:59;;;;;;;1.85;1.75;;;;;;;1.37;100.00;100355.91;6018928;23;20026;-91
2023/01/26 08:13:26;;;;;;;2.78;2.58;;;;;;;1.34;100.00;100351.16;6044602;23;20320;-91
2023/01/26 08:15:52;;;;;;;2.45;2.17;;;;;;;1.37;100.00;100351.25;6045504;23;20013;-91
2023/01/26 08:18:18;;;;;;;5.97;3.45;;;;;;;1.40;100.00;100355.19;6044359;23;20018;-92
2023/01/26 08:20:53;;;;;;;2.40;1.88;;;;;;;1.42;100.00;100364.56;6045088;23;20056;-91
2023/01/26 08:23:19;;;;;;;6.13;4.22;;;;;;;1.40;100.00;100358.69;6067978;23;20026;-92
2023/01/26 08:25:45;;;;;;;2.38;1.60;;;;;;;1.42;100.00;100353.63;6021135;23;20002;-92
2023/01/26 08:28:11;;;;;;;4.45;4.15;;;;;;;1.40;100.00;100357.91;6068195;23;20463;-91
2023/01/26 08:30:37;;;;;;;4.35;2.30;;;;;;;1.38;100.00;100347.31;6043907;23;20070;-94
2023/01/26 08:33:03;;;;;;;4.93;3.20;;;;;;;1.40;100.00;100366.09;6067948;23;20026;-92
2023/01/26 13:55:41;;;;;;;3.03;2.83;;;;;;;1.60;100.00;100102.38;5000793;28;20539;-89
2023/01/26 13:58:14;;;;;;;2.60;2.35;;;;;;;1.65;100.00;100115.72;4973640;28;20038;-90
2023/01/26 14:00:40;;;;;;;4.18;1.42;;;;;;;1.55;100.00;100110.13;4975948;28;20054;-91
2023/01/26 14:03:20;;;;;;;1.60;1.50;;;;;;;1.31;100.00;100101.28;4959971;28;20038;-90
2023/01/26 14:05:59;;;;;;;9.95;3.20;;;;;;;1.37;100.00;100121.66;4973004;28;20034;-89
2023/01/26 14:08:28;;;;;;;2.20;1.48;;;;;;;1.27;100.00;100099.66;4975280;28;20030;-91
2023/01/26 14:10:54;;;;;;;0.65;0.65;;;;;;;1.35;100.00;100110.28;4976587;28;20501;-90
2023/01/26 14:13:30;;;;;;;1.13;1.13;;;;;;;1.31;100.00;100100.47;4976390;28;20049;-89
2023/01/26 14:15:58;;;;;;;1.38;1.30;;;;;;;1.25;100.00;100104.72;4969189;28;21772;-91
2023/01/26 14:18:24;;;;;;;4.47;2.53;;;;;;;1.39;100.00;100118.53;4978999;28;20039;-89
2023/01/26 14:20:57;;;;;;;0.82;0.82;;;;;;;1.35;100.00;100118.50;4977498;28;20035;-90
2023/01/26 14:23:27;;;;;;;1.15;0.88;;;;;;;1.40;100.00;100114.66;4976328;28;20042;-89
2023/01/26 14:26:05;;;;;;;1.88;1.77;;;;;;;1.34;100.00;100116.91;4972412;28;20121;-89
2023/01/26 14:28:36;;;;;;;1.90;1.80;;;;;;;1.35;100.00;100114.97;4961156;28;20175;-90
2023/01/26 14:31:14;;;;;;;1.42;1.33;;;;;;;1.39;100.00;100119.31;4995143;28;20637;-90
2023/01/26 14:33:40;;;;;;;2.42;2.22;;;;;;;1.34;100.00;100113.38;4980951;28;20031;-90
2023/01/26 14:36:11;;;;;;;1.17;1.02;;;;;;;1.36;100.00;100117.34;4956634;28;20035;-89
2023/01/26 14:38:44;;;;;;;1.95;1.83;;;;;;;1.38;100.00;100123.22;4980860;28;20034;-89
2023/01/26 14:41:23;;;;;;;1.95;1.80;;;;;;;1.38;100.00;100123.22;4989172;28;20091;-89
2023/01/26 14:43:51;;;;;;;2.40;2.15;;;;;;;1.25;100.00;100096.53;4992530;28;20486;-88
2023/01/26 14:46:27;;;;;;;1.73;1.55;;;;;;;1.16;100.00;100101.47;4992636;28;20105;-90
2023/01/26 14:48:56;;;;;;;1.77;1.33;;;;;;;1.30;100.00;100128.97;4964784;28;20439;-88
2023/01/26 14:51:24;;;;;;;0.47;0.47;;;;;;;1.23;100.00;100123.41;4978228;28;20030;-89
2023/01/26 14:53:51;;;;;;;1.33;1.33;;;;;;;1.31;100.00;100133.28;4980166;28;20437;-89
2023/01/26 14:56:22;;;;;;;2.17;1.55;;;;;;;1.20;100.00;100115.97;4977926;28;20030;-89
2023/01/26 14:58:50;;;;;;;3.35;2.92;;;;;;;1.29;100.00;100128.19;4979973;28;20031;-89
2023/01/26 15:01:24;;;;;;;1.75;1.13;;;;;;;1.28;100.00;100134.03;4960279;28;20103;-88
2023/01/26 15:03:56;;;;;;;0.50;0.50;;;;;;;1.26;100.00;100128.91;4960694;28;20126;-89
2023/01/26 15:06:27;;;;;;;1.45;1.35;;;;;;;1.17;100.00;100122.19;4958726;28;20045;-91
2023/01/26 15:08:58;;;;;;;0.88;0.75;;;;;;;1.24;100.00;100130.47;4956859;28;20032;-89
2023/01/26 15:14:33;;;;;;;0.68;0.68;;;;;;;1.21;100.00;100131.22;4963862;28;20043;-88
2023/01/26 15:16:59;;;;;;;2.42;1.58;;;;;;;1.13;100.00;100132.28;4969590;28;20093;-88
2023/01/26 15:19:26;;;;;;;0.30;0.30;;;;;;;1.15;100.00;100127.22;4941037;28;20516;-90
2023/01/26 15:21:52;;;;;;;0.35;0.35;;;;;;;1.13;100.00;100132.28;4972671;28;20026;-91
2023/01/26 15:24:17;;;;;;;1.63;1.52;;;;;;;1.17;100.00;100133.91;4968677;28;20041;-89
2023/01/26 15:26:46;;;;;;;0.10;0.10;;;;;;;1.18;100.00;100121.00;4965586;28;20039;-89
2023/01/26 15:29:25;;;;;;;0.47;0.47;;;;;;;1.11;100.00;100134.59;4947634;29;20425;-89
2023/01/26 15:31:53;;;;;;;1.33;1.23;;;;;;;1.12;100.00;100130.69;4944352;29;20043;-91
2023/01/26 15:34:32;;;;;;;2.20;1.05;;;;;;;1.11;100.00;100129.91;4922813;28;20509;-89
2023/01/26 15:36:59;;;;;;;1.48;1.38;;;;;;;1.09;100.00;100120.53;4953146;28;20543;-90
2023/01/26 15:39:25;;;;;;;0.85;0.85;;;;;;;0.97;100.00;100107.09;4955621;28;20417;-89
2023/01/26 15:42:15;;;;;;;2.28;0.35;;;;;;;0.96;100.00;100100.06;4943315;28;20027;-90
2023/01/26 15:44:40;;;;;;;4.13;1.20;;;;;;;1.05;100.00;100127.88;4953522;28;20460;-89
2023/01/26 15:47:10;;;;;;;0.93;0.93;;;;;;;0.98;100.00;100119.56;4963947;28;20028;-89
2023/01/26 15:49:37;;;;;;;3.03;1.05;;;;;;;0.96;100.00;100122.69;4918271;28;20027;-89
2023/01/26 15:52:07;;;;;;;0.00;0.00;;;;;;;0.92;100.00;100111.72;4933902;28;20059;-90
2023/01/26 15:54:33;;;;;;;0.35;0.35;;;;;;;1.00;100.00;100122.75;4932296;28;20055;-89
2023/01/26 15:56:59;;;;;;;1.40;1.27;;;;;;;0.86;100.00;100091.34;4916696;29;20058;-89
2023/01/26 15:59:24;;;;;;;0.52;0.52;;;;;;;0.79;100.00;100085.81;4915603;28;20043;-89
2023/01/26 16:01:50;;;;;;;7.40;2.33;;;;;;;0.83;100.00;100097.56;4916086;28;20128;-89
2023/01/26 16:04:16;;;;;;;0.60;0.60;;;;;;;0.91;100.00;100114.81;4940159;29;20046;-90
2023/01/26 16:06:41;;;;;;;0.10;0.10;;;;;;;0.99;100.00;100121.94;4932772;29;20047;-89
2023/01/26 16:09:07;;;;;;;1.83;1.58;;;;;;;1.01;100.00;100129.78;4918779;28;20059;-88
2023/01/26 16:11:38;;;;;;;0.25;0.25;;;;;;;0.98;100.00;100122.31;4902328;28;20043;-89
2023/01/26 16:14:04;;;;;;;2.30;2.13;;;;;;;0.96;100.00;100130.88;4917418;28;20542;-89
2023/01/26 16:16:30;;;;;;;0.75;0.75;;;;;;;0.97;100.00;100126.22;4955373;28;20042;-89
2023/01/26 16:18:56;;;;;;;5.32;1.38;;;;;;;0.91;100.00;100112.09;4915075;29;20028;-89
2023/01/26 16:21:29;;;;;;;1.27;1.20;;;;;;;0.95;100.00;100129.31;4920689;29;20166;-89
2023/01/26 16:23:54;;;;;;;3.35;1.83;;;;;;;0.97;100.00;100134.41;4942766;29;20035;-89
2023/01/26 16:26:20;;;;;;;7.72;3.08;;;;;;;0.88;100.00;100123.75;4929528;29;20057;-90
2023/01/26 16:28:46;;;;;;;11.65;5.15;;;;;;;0.92;100.00;100139.03;4923406;28;20730;-89
2023/01/26 16:31:28;;;;;;;6.18;1.95;;;;;;;0.92;100.00;100136.31;4924750;28;20027;-89
2023/01/26 16:33:54;;;;;;;2.85;2.65;;;;;;;0.82;100.00;100117.81;5009379;28;20055;-90
2023/01/26 16:36:20;;;;;;;5.88;1.77;;;;;;;0.86;100.00;100129.59;4939267;29;20177;-89
2023/01/26 16:38:47;;;;;;;6.30;3.22;;;;;;;0.79;100.00;100118.56;4915919;28;20031;-89
2023/01/26 16:41:31;;;;;;;0.95;0.93;;;;;;;0.77;100.00;100104.47;4935052;29;20537;-89
2023/01/26 16:44:01;;;;;;;1.90;1.15;;;;;;;0.69;100.00;100100.09;4935229;29;20035;-89
2023/01/26 16:46:28;;;;;;;0.50;0.50;;;;;;;0.72;100.00;100101.31;4934208;28;20069;-90
2023/01/26 16:48:54;;;;;;;1.27;1.17;;;;;;;0.72;100.00;100113.00;4912602;28;20069;-89
2023/01/26 16:51:24;;;;;;;1.50;1.25;;;;;;;0.61;100.00;100098.41;4912196;28;20462;-88
2023/01/26 16:53:50;;;;;;;2.03;1.90;;;;;;;0.63;100.00;100109.75;4934415;28;20070;-88
2023/01/26 16:56:17;;;;;;;3.80;1.20;;;;;;;0.72;100.00;100106.75;4935730;28;20112;-89
2023/01/26 16:58:43;;;;;;;0.75;0.75;;;;;;;0.68;100.00;100123.09;4947870;28;20511;-89
2023/01/26 17:01:22;;;;;;;2.80;0.77;;;;;;;0.73;100.00;100113.81;4931364;28;20035;-89
2023/01/26 17:03:48;;;;;;;3.25;2.40;;;;;;;0.73;100.00;100125.50;4946403;28;20517;-88
2023/01/26 17:06:15;;;;;;;0.22;0.22;;;;;;;0.57;100.00;100096.81;4962838;28;20015;-89
2023/01/26 17:08:40;;;;;;;1.27;1.08;;;;;;;0.66;100.00;100109.00;4930058;28;20031;-89
2023/01/26 17:11:11;;;;;;;0.57;0.38;;;;;;;0.69;100.00;100116.47;4919174;28;20043;-89
2023/01/26 17:13:37;;;;;;;1.30;1.25;;;;;;;0.73;100.00;100120.03;4948224;28;20041;-91
2023/01/26 17:16:03;;;;;;;1.55;1.05;;;;;;;0.72;100.00;100115.75;4947943;28;20461;-91
2023/01/26 17:18:32;;;;;;;1.67;1.58;;;;;;;0.77;100.00;100117.38;4940970;28;20039;-90
2023/01/26 17:21:01;;;;;;;2.00;1.90;;;;;;;0.71;100.00;100100.50;4952440;28;20039;-91
2023/01/26 17:23:27;;;;;;;1.20;1.15;;;;;;;0.90;100.00;100119.50;4926502;28;20043;-90
2023/01/26 17:25:57;;;;;;;1.65;0.40;;;;;;;0.73;100.00;100092.72;4926736;28;20088;-92
2023/01/26 17:28:22;;;;;;;0.85;0.80;;;;;;;0.92;100.00;100117.19;4930186;28;20035;-91
2023/01/26 17:30:48;;;;;;;0.40;0.40;;;;;;;0.91;100.00;100106.63;4932677;28;20035;-90
2023/01/26 17:33:14;;;;;;;1.45;1.45;;;;;;;0.98;100.00;100114.13;4937268;28;20071;-91
2023/01/26 17:35:40;;;;;;;0.65;0.60;;;;;;;0.97;100.00;100107.09;4930849;28;20038;-91
2023/01/26 17:38:06;;;;;;;1.65;1.55;;;;;;;0.90;100.00;100103.09;4948096;28;20129;-90
2023/01/26 17:40:31;;;;;;;0.32;0.32;;;;;;;0.99;100.00;100112.97;4937738;28;20109;-90
2023/01/26 17:42:57;;;;;;;1.77;1.30;;;;;;;0.83;100.00;100108.47;4950100;28;20444;-90
2023/01/26 17:45:23;;;;;;;1.00;1.00;;;;;;;0.94;100.00;100119.53;4951192;28;20037;-91
2023/01/26 17:47:49;;;;;;;1.23;1.15;;;;;;;0.90;100.00;100108.56;4949161;28;20034;-92
2023/01/26 17:50:15;;;;;;;1.15;1.13;;;;;;;0.78;100.00;100088.88;4949487;28;20074;-92
2023/01/26 17:52:40;;;;;;;2.13;2.03;;;;;;;0.90;100.00;100119.50;4958665;28;20429;-91
2023/01/26 17:55:06;;;;;;;0.93;0.93;;;;;;;0.81;100.00;100108.06;4945743;28;20112;-91
2023/01/26 17:57:33;;;;;;;1.15;1.05;;;;;;;0.86;100.00;100118.66;4944716;28;20057;-91
2023/01/26 17:59:58;;;;;;;0.88;0.88;;;;;;;0.72;100.00;100107.56;4959720;28;20035;-91
2023/01/26 18:02:24;;;;;;;2.10;0.95;;;;;;;0.78;100.00;100105.28;4936743;28;20485;-91
2023/01/26 18:04:56;;;;;;;0.32;0.32;;;;;;;0.82;100.00;100101.44;4917900;28;20031;-91
2023/01/26 18:07:24;;;;;;;1.40;1.30;;;;;;;0.87;100.00;100108.53;4938886;28;20043;-91
2023/01/26 18:09:50;;;;;;;0.50;0.50;;;;;;;0.90;100.00;100114.03;4930251;29;20038;-91
2023/01/26 18:12:16;;;;;;;2.00;1.35;;;;;;;0.89;100.00;100115.19;4932564;28;20027;-91
2023/01/26 18:14:42;;;;;;;1.40;1.30;;;;;;;0.86;100.00;100112.41;4932711;28;20042;-90
2023/01/26 18:17:08;;;;;;;1.17;1.00;;;;;;;0.86;100.00;100107.72;4932224;28;20050;-90
2023/01/26 18:19:34;;;;;;;0.52;0.52;;;;;;;0.91;100.00;100121.06;4925238;28;20085;-90
2023/01/26 18:21:59;;;;;;;0.40;0.40;;;;;;;0.93;100.00;100107.06;4944271;28;20479;-91
2023/01/26 18:24:25;;;;;;;1.35;1.30;;;;;;;0.86;100.00;100107.72;4930853;28;20473;-91
2023/01/26 18:26:51;;;;;;;0.55;0.52;;;;;;;0.80;100.00;100098.31;4963279;28;20418;-90
2023/01/26 18:29:17;;;;;;;1.13;1.08;;;;;;;0.89;100.00;100117.16;4948950;28;20086;-91
2023/01/26 18:31:43;;;;;;;1.05;0.77;;;;;;;0.83;100.00;100108.47;4943426;28;20503;-90
2023/01/26 18:34:10;;;;;;;1.42;1.33;;;;;;;0.75;100.00;100101.34;4945288;28;20042;-90
2023/01/26 18:36:36;;;;;;;2.00;1.80;;;;;;;0.86;100.00;100113.19;4935949;28;20046;-90
2023/01/26 18:39:04;;;;;;;1.70;1.58;;;;;;;0.85;100.00;100108.88;4925149;28;20497;-90
2023/01/26 18:41:31;;;;;;;0.25;0.25;;;;;;;0.84;100.00;100110.06;4945243;28;20391;-91
2023/01/26 18:43:58;;;;;;;1.02;0.95;;;;;;;0.87;100.00;100112.03;4935430;28;20042;-90
2023/01/26 18:46:26;;;;;;;0.32;0.32;;;;;;;0.74;100.00;100091.56;4948954;28;20046;-90
2023/01/26 18:48:59;;;;;;;3.65;3.35;;;;;;;0.84;100.00;100107.34;4923707;28;20034;-90
2023/01/26 18:51:26;;;;;;;2.85;2.33;;;;;;;0.90;100.00;100122.22;4952384;28;20045;-90
2023/01/26 18:53:52;;;;;;;6.10;2.55;;;;;;;0.91;100.00;100107.41;4955649;28;20115;-90
2023/01/26 18:56:18;;;;;;;0.82;0.82;;;;;;;0.94;100.00;100116.81;4916444;28;20035;-90
2023/01/26 18:58:45;;;;;;;4.38;2.67;;;;;;;0.94;100.00;100108.59;4931730;28;20066;-90
2023/01/26 19:01:13;;;;;;;2.17;1.98;;;;;;;0.94;100.00;100086.75;4949089;28;20035;-89
2023/01/26 19:03:41;;;;;;;2.90;2.30;;;;;;;0.87;100.00;100109.31;4916211;28;20448;-91
2023/01/26 19:06:07;;;;;;;1.25;1.15;;;;;;;0.75;100.00;100095.09;4932428;28;20403;-91
2023/01/26 19:08:34;;;;;;;2.03;1.60;;;;;;;0.72;100.00;100091.19;4944321;28;20038;-90
2023/01/26 19:11:07;;;;;;;1.60;1.50;;;;;;;0.69;100.00;100096.59;4940357;28;20059;-90
2023/01/26 19:13:33;;;;;;;2.00;1.80;;;;;;;0.74;100.00;100102.50;4932566;28;20547;-91
2023/01/26 19:16:01;;;;;;;0.17;0.17;;;;;;;0.73;100.00;100091.97;4951304;28;20035;-91
2023/01/26 19:18:27;;;;;;;1.05;1.02;;;;;;;0.86;100.00;100101.47;4930777;28;20482;-90
2023/01/26 19:20:55;;;;;;;1.33;1.23;;;;;;;0.90;100.00;100102.31;4933457;28;20482;-91
2023/01/26 19:23:21;;;;;;;1.92;1.75;;;;;;;0.62;100.00;100061.78;4949989;28;20116;-90
2023/01/26 19:25:47;;;;;;;2.63;2.38;;;;;;;0.63;100.00;100084.41;4949592;28;20039;-90
2023/01/26 19:28:13;;;;;;;6.82;2.05;;;;;;;0.50;100.00;100089.28;4957356;28;20031;-90
2023/01/26 19:30:39;;;;;;;0.95;0.95;;;;;;;0.57;100.00;100105.75;4955993;28;20027;-90
2023/01/26 19:33:24;;;;;;;2.67;1.75;;;;;;;0.36;100.00;100062.59;4956506;28;20034;-90
2023/01/26 19:35:51;;;;;;;3.17;2.92;;;;;;;0.66;100.00;100095.38;4966703;28;20530;-89
2023/01/26 19:38:19;;;;;;;0.82;0.80;;;;;;;0.59;100.00;100067.97;4938936;28;20464;-90
2023/01/26 19:40:46;;;;;;;0.77;0.77;;;;;;;0.54;100.00;100094.78;4933990;28;20054;-91
2023/01/26 19:43:14;;;;;;;14.13;4.82;;;;;;;0.39;100.00;100082.91;4940823;28;20038;-90
2023/01/26 19:45:40;;;;;;;4.80;4.32;;;;;;;0.37;100.00;100085.19;4940574;28;20066;-91